createdAt,value
2022-11-08T00:01:30.055Z,5.88
2022-11-08T00:03:57.768Z,5.80
2022-11-08T00:06:44.203Z,5.75
2022-11-08T00:09:29.701Z,5.73
2022-11-08T00:12:16.162Z,5.78
2022-11-08T00:14:44.149Z,5.70
2022-11-08T00:17:12.373Z,5.64
2022-11-08T00:19:40.058Z,5.46
2022-11-08T00:22:07.726Z,5.33
2022-11-08T00:24:35.769Z,5.32
2022-11-08T00:27:07.157Z,5.33
2022-11-08T00:29:35.596Z,5.27
2022-11-08T00:32:04.096Z,5.23
2022-11-08T00:34:31.824Z,5.25
2022-11-08T00:37:00.100Z,5.16
2022-11-08T00:39:27.822Z,5.06
2022-11-08T00:41:56.332Z,5.06
2022-11-08T00:44:25.444Z,5.01
2022-11-08T00:46:53.898Z,4.96
2022-11-08T00:49:21.621Z,5.01
2022-11-08T00:51:49.426Z,5.10
2022-11-08T00:54:19.005Z,5.14
2022-11-08T00:56:47.737Z,5.19
2022-11-08T00:59:17.256Z,5.18
2022-11-08T01:01:47.168Z,5.01
2022-11-08T01:04:17.770Z,5.01
2022-11-08T01:06:46.104Z,4.95
2022-11-08T01:09:13.857Z,4.94
2022-11-08T01:11:45.335Z,5.00
2022-11-08T01:14:14.886Z,5.07
2022-11-08T01:16:43.174Z,5.14
2022-11-08T01:19:12.447Z,5.19
2022-11-08T01:21:40.111Z,5.11
2022-11-08T01:24:08.404Z,5.09
2022-11-08T01:26:36.605Z,5.08
2022-11-08T01:29:04.468Z,5.07
2022-11-08T01:31:33.307Z,5.06
2022-11-08T01:34:01.907Z,5.01
2022-11-08T01:36:31.653Z,4.99
2022-11-08T01:38:59.337Z,4.97
2022-11-08T01:41:28.470Z,4.95
2022-11-08T01:43:57.510Z,4.93
2022-11-08T01:46:37.772Z,4.92
2022-11-08T01:49:32.211Z,4.86
2022-11-08T01:52:19.811Z,4.86
2022-11-08T01:54:52.656Z,4.84
2022-11-08T01:57:24.712Z,4.83
2022-11-08T01:59:56.737Z,4.83
2022-11-08T02:02:25.295Z,4.88
2022-11-08T02:04:53.013Z,4.91
2022-11-08T02:07:24.019Z,4.92
2022-11-08T02:09:51.681Z,4.91
2022-11-08T02:12:23.065Z,4.90
2022-11-08T02:14:50.783Z,4.88
2022-11-08T02:17:19.168Z,4.88
2022-11-08T02:19:49.809Z,4.93
2022-11-08T02:22:24.217Z,4.95
2022-11-08T02:24:54.213Z,5.01
2022-11-08T02:27:22.723Z,4.94
2022-11-08T02:29:53.791Z,4.91
2022-11-08T02:32:22.117Z,4.96
2022-11-08T02:34:53.925Z,4.98
2022-11-08T02:37:24.406Z,4.95
2022-11-08T02:39:53.421Z,4.87
2022-11-08T02:42:22.578Z,4.78
2022-11-08T02:44:50.531Z,4.72
2022-11-08T02:47:18.608Z,4.66
2022-11-08T02:49:46.245Z,4.62
2022-11-08T02:52:14.232Z,4.59
2022-11-08T02:54:42.337Z,4.54
2022-11-08T02:57:11.349Z,4.47
2022-11-08T02:59:39.309Z,4.44
2022-11-08T03:02:07.342Z,4.26
2022-11-08T03:04:35.432Z,4.21
2022-11-08T03:07:03.094Z,4.25
2022-11-08T03:09:31.435Z,4.31
2022-11-08T03:11:59.085Z,4.40
2022-11-08T03:14:28.665Z,4.03
2022-11-08T03:16:56.292Z,4.09
2022-11-08T03:19:23.976Z,4.12
2022-11-08T03:21:51.641Z,4.16
2022-11-08T03:24:19.310Z,4.13
2022-11-08T03:26:46.966Z,4.15
2022-11-08T03:29:14.977Z,4.16
2022-11-08T03:31:43.990Z,4.19
2022-11-08T03:34:12.494Z,4.22
2022-11-08T03:36:40.166Z,4.20
2022-11-08T03:39:07.824Z,4.05
2022-11-08T03:41:35.497Z,4.10
2022-11-08T03:44:03.840Z,4.14
2022-11-08T03:46:31.499Z,4.14
2022-11-08T03:49:00.856Z,4.07
2022-11-08T03:51:28.478Z,4.12
2022-11-08T03:53:56.454Z,4.15
2022-11-08T03:56:24.102Z,4.20
2022-11-08T03:58:52.083Z,4.28
2022-11-08T04:01:19.825Z,4.31
2022-11-08T04:03:47.957Z,4.24
2022-11-08T04:06:16.979Z,4.23
2022-11-08T04:08:44.631Z,4.19
2022-11-08T04:11:30.201Z,4.20
2022-11-08T04:14:15.592Z,4.17
2022-11-08T04:16:43.351Z,4.16
2022-11-08T04:19:29.535Z,4.21
2022-11-08T04:21:58.615Z,4.23
2022-11-08T04:24:26.292Z,4.24
2022-11-08T04:26:53.944Z,4.19
2022-11-08T04:29:22.164Z,4.15
2022-11-08T04:31:49.833Z,4.25
2022-11-08T04:34:17.481Z,4.31
2022-11-08T04:36:45.118Z,4.35
2022-11-08T04:39:14.666Z,4.21
2022-11-08T04:41:42.338Z,4.12
2022-11-08T04:44:10.404Z,4.04
2022-11-08T04:46:38.137Z,3.91
2022-11-08T04:49:06.278Z,3.84
2022-11-08T04:51:34.793Z,3.53
2022-11-08T04:54:06.311Z,3.56
2022-11-08T04:56:35.431Z,3.62
2022-11-08T04:59:06.231Z,3.62
2022-11-08T05:01:37.271Z,3.35
2022-11-08T05:04:06.053Z,3.30
2022-11-08T05:06:33.761Z,3.34
2022-11-08T05:09:02.364Z,3.34
2022-11-08T05:11:31.413Z,3.26
2022-11-08T05:14:00.864Z,3.22
2022-11-08T05:16:30.796Z,3.30
2022-11-08T05:18:58.670Z,3.34
2022-11-08T05:21:43.804Z,3.10
2022-11-08T05:24:14.208Z,3.15
2022-11-08T05:26:44.518Z,3.18
2022-11-08T05:29:14.742Z,3.07
2022-11-08T05:31:42.492Z,3.08
2022-11-08T05:34:10.828Z,3.04
2022-11-08T05:36:38.529Z,3.05
2022-11-08T05:39:06.250Z,3.09
2022-11-08T05:41:33.946Z,3.18
2022-11-08T05:44:02.243Z,3.23
2022-11-08T05:46:31.240Z,3.12
2022-11-08T05:48:59.456Z,3.09
2022-11-08T05:51:27.502Z,3.06
2022-11-08T05:53:55.794Z,2.96
2022-11-08T05:56:23.459Z,2.95
2022-11-08T05:58:51.420Z,2.96
2022-11-08T06:01:20.396Z,3.03
2022-11-08T06:03:49.908Z,3.19
2022-11-08T06:06:19.835Z,3.29
2022-11-08T06:08:50.612Z,3.37
2022-11-08T06:11:22.353Z,3.47
2022-11-08T06:13:51.235Z,3.22
2022-11-08T06:16:20.121Z,3.25
2022-11-08T06:18:49.579Z,3.41
2022-11-08T06:21:19.009Z,3.36
2022-11-08T06:23:47.533Z,3.39
2022-11-08T06:26:15.240Z,3.47
2022-11-08T06:28:43.218Z,3.26
2022-11-08T06:31:10.879Z,3.42
2022-11-08T06:33:39.228Z,3.27
2022-11-08T06:36:09.055Z,3.41
2022-11-08T06:38:37.221Z,3.49
2022-11-08T06:41:04.948Z,3.56
2022-11-08T06:43:32.628Z,3.60
2022-11-08T06:46:02.080Z,3.69
2022-11-08T06:48:35.466Z,3.60
2022-11-08T06:51:04.642Z,3.62
2022-11-08T06:53:34.558Z,3.69
2022-11-08T06:56:02.682Z,3.68
2022-11-08T06:58:31.541Z,3.66
2022-11-08T07:00:59.281Z,3.76
2022-11-08T07:03:27.476Z,3.92
2022-11-08T07:05:55.301Z,4.02
2022-11-08T07:08:24.484Z,4.09
2022-11-08T07:10:53.602Z,4.23
2022-11-08T07:13:21.935Z,4.40
2022-11-08T07:15:49.919Z,4.52
2022-11-08T07:18:20.620Z,4.51
2022-11-08T07:20:48.364Z,4.67
2022-11-08T07:23:16.054Z,4.74
2022-11-08T07:25:43.729Z,4.94
2022-11-08T07:28:17.635Z,5.11
2022-11-08T07:30:45.702Z,5.27
2022-11-08T07:33:13.806Z,5.78
2022-11-08T07:35:42.216Z,6.01
2022-11-08T07:38:10.226Z,6.45
2022-11-08T07:40:37.877Z,6.82
2022-11-08T07:43:11.715Z,6.98
2022-11-08T07:45:59.429Z,7.34
2022-11-08T07:48:28.262Z,7.33
2022-11-08T07:50:56.598Z,7.29
2022-11-08T07:53:25.391Z,7.19
2022-11-08T07:55:53.927Z,7.00
2022-11-08T07:58:22.331Z,7.17
2022-11-08T08:00:50.197Z,7.24
2022-11-08T08:03:20.754Z,7.37
2022-11-08T08:05:56.575Z,7.72
2022-11-08T08:08:27.741Z,8.20
2022-11-08T08:10:58.390Z,8.09
2022-11-08T08:13:26.811Z,8.37
2022-11-08T08:15:54.901Z,8.42
2022-11-08T08:18:23.906Z,8.43
2022-11-08T08:20:52.281Z,8.40
2022-11-08T08:23:20.123Z,8.39
2022-11-08T08:25:48.264Z,8.67
2022-11-08T08:28:15.957Z,8.96
2022-11-08T08:30:43.965Z,9.33
2022-11-08T08:33:27.831Z,9.58
2022-11-08T08:36:01.472Z,10.14
2022-11-08T08:38:29.303Z,11.31
2022-11-08T08:40:57.287Z,12.13
2022-11-08T08:43:27.373Z,12.88
2022-11-08T08:45:55.958Z,13.99
2022-11-08T08:48:23.603Z,13.25
2022-11-08T08:50:51.619Z,12.53
2022-11-08T08:53:21.237Z,11.90
2022-11-08T08:55:52.611Z,11.62
2022-11-08T08:58:20.561Z,11.46
2022-11-08T09:03:36.785Z,12.88
2022-11-08T09:06:05.326Z,14.90
2022-11-08T09:08:34.460Z,16.30
2022-11-08T09:11:03.255Z,17.73
2022-11-08T09:13:31.792Z,19.02
2022-11-08T09:16:01.677Z,19.66
2022-11-08T09:18:29.590Z,19.78
2022-11-08T09:20:58.811Z,19.24
2022-11-08T09:23:26.925Z,18.57
2022-11-08T09:25:59.135Z,19.41
2022-11-08T09:28:31.295Z,20.17
2022-11-08T09:31:07.471Z,21.66
2022-11-08T09:33:35.542Z,22.87
2022-11-08T09:36:05.551Z,24.01
2022-11-08T09:38:33.689Z,24.44
2022-11-08T09:41:18.468Z,24.63
2022-11-08T09:44:01.127Z,24.42
2022-11-08T09:46:36.853Z,23.12
2022-11-08T09:49:07.431Z,23.47
2022-11-08T09:51:36.859Z,23.72
2022-11-08T09:54:06.317Z,23.31
2022-11-08T09:56:37.837Z,22.47
2022-11-08T09:59:14.244Z,21.61
2022-11-08T10:01:42.903Z,21.01
2022-11-08T10:04:19.345Z,21.06
2022-11-08T10:07:07.313Z,20.99
2022-11-08T10:09:49.978Z,20.36
2022-11-08T10:12:26.880Z,19.62
2022-11-08T10:15:07.867Z,18.88
2022-11-08T10:18:16.041Z,18.28
2022-11-08T10:20:56.375Z,17.89
2022-11-08T10:23:32.154Z,17.65
2022-11-08T10:26:02.357Z,17.47
2022-11-08T10:28:35.411Z,17.29
2022-11-08T10:31:04.265Z,17.44
2022-11-08T10:33:36.042Z,18.63
2022-11-08T10:36:10.643Z,20.67
2022-11-08T10:38:46.075Z,22.55
2022-11-08T10:41:21.940Z,23.55
2022-11-08T10:43:56.517Z,24.21
2022-11-08T10:46:38.418Z,24.33
2022-11-08T10:49:15.830Z,25.18
2022-11-08T10:51:45.520Z,25.46
2022-11-08T10:54:53.657Z,24.27
2022-11-08T10:57:35.449Z,24.16
2022-11-08T11:00:25.957Z,24.45
2022-11-08T11:02:55.394Z,24.82
2022-11-08T11:05:29.721Z,24.41
2022-11-08T11:08:14.027Z,22.47
2022-11-08T11:10:44.454Z,21.34
2022-11-08T11:13:14.396Z,20.45
2022-11-08T11:15:51.202Z,20.05
2022-11-08T11:18:29.115Z,18.84
2022-11-08T11:21:08.294Z,18.03
2022-11-08T11:23:39.981Z,17.89
2022-11-08T11:26:15.749Z,18.12
2022-11-08T11:29:15.927Z,18.06
2022-11-08T11:31:46.816Z,17.83
2022-11-08T11:34:45.097Z,17.86
2022-11-08T11:37:22.578Z,17.99
2022-11-08T11:39:58.666Z,18.10
2022-11-08T11:42:49.095Z,18.16
2022-11-08T11:45:20.422Z,18.35
2022-11-08T11:47:53.625Z,18.35
2022-11-08T11:50:34.156Z,18.06
2022-11-08T11:53:05.838Z,17.92
2022-11-08T11:55:58.478Z,17.45
2022-11-08T11:58:46.572Z,17.83
2022-11-08T12:01:25.040Z,17.70
2022-11-08T12:04:11.193Z,17.58
2022-11-08T12:06:46.841Z,17.78
2022-11-08T12:09:31.239Z,18.03
2022-11-08T12:12:13.205Z,18.62
2022-11-08T12:14:57.999Z,19.02
2022-11-08T12:17:54.309Z,18.93
2022-11-08T12:20:34.826Z,18.99
2022-11-08T12:23:27.217Z,18.97
2022-11-08T12:26:03.314Z,18.65
2022-11-08T12:28:57.401Z,18.71
2022-11-08T12:31:30.394Z,18.22
2022-11-08T12:34:15.152Z,17.94
2022-11-08T12:36:53.711Z,17.96
2022-11-08T12:39:30.393Z,18.15
2022-11-08T12:42:14.718Z,18.25
2022-11-08T12:45:07.666Z,18.25
2022-11-08T12:47:41.810Z,18.31
2022-11-08T12:50:22.102Z,18.53
2022-11-08T12:53:05.670Z,18.28
2022-11-08T12:55:37.385Z,18.30
2022-11-08T12:58:30.439Z,18.41
2022-11-08T13:01:06.131Z,18.37
2022-11-08T13:03:52.676Z,17.93
2022-11-08T13:06:28.224Z,18.15
2022-11-08T13:09:06.076Z,18.05
2022-11-08T13:11:40.468Z,18.10
2022-11-08T13:14:15.043Z,17.71
2022-11-08T13:16:45.083Z,17.38
2022-11-08T13:19:28.870Z,17.04
2022-11-08T13:21:57.770Z,16.90
2022-11-08T13:24:50.602Z,16.60
2022-11-08T13:27:34.946Z,16.64
2022-11-08T13:30:38.371Z,16.52
2022-11-08T13:33:15.928Z,16.63
2022-11-08T13:35:50.665Z,16.42
2022-11-08T13:38:29.814Z,16.12
2022-11-08T13:41:24.549Z,15.95
2022-11-08T13:43:55.559Z,15.89
2022-11-08T13:46:46.253Z,15.81
2022-11-08T13:49:19.491Z,15.90
2022-11-08T13:51:48.329Z,15.82
2022-11-08T13:54:47.087Z,15.78
2022-11-08T13:57:21.601Z,15.81
2022-11-08T13:59:59.263Z,15.79
2022-11-08T14:02:38.676Z,15.83
2022-11-08T14:05:26.213Z,15.85
2022-11-08T14:08:19.046Z,15.93
2022-11-08T14:11:16.000Z,15.84
2022-11-08T14:14:11.499Z,15.70
2022-11-08T14:16:48.699Z,15.75
2022-11-08T14:19:22.326Z,15.82
2022-11-08T14:21:53.088Z,15.69
2022-11-08T14:24:25.334Z,15.73
2022-11-08T14:26:54.328Z,16.00
2022-11-08T14:29:25.282Z,16.08
2022-11-08T14:32:17.491Z,16.15
2022-11-08T14:34:45.887Z,16.21
2022-11-08T14:37:22.744Z,15.92
2022-11-08T14:39:51.674Z,16.04
2022-11-08T14:42:23.892Z,16.08
2022-11-08T14:44:57.098Z,15.97
2022-11-08T14:47:26.899Z,15.79
2022-11-08T14:49:54.567Z,15.62
2022-11-08T14:52:26.154Z,15.59
2022-11-08T14:55:03.051Z,15.37
2022-11-08T14:57:34.340Z,15.21
2022-11-08T15:00:10.844Z,15.00
2022-11-08T15:02:39.204Z,14.71
2022-11-08T15:05:07.653Z,14.66
2022-11-08T15:07:36.234Z,14.59
2022-11-08T15:10:09.156Z,14.51
2022-11-08T15:12:42.865Z,14.41
2022-11-08T15:15:24.880Z,14.20
2022-11-08T15:18:12.184Z,14.22
2022-11-08T15:20:40.699Z,14.31
2022-11-08T15:23:40.616Z,14.48
2022-11-08T15:26:20.206Z,14.58
2022-11-08T15:29:03.461Z,14.59
2022-11-08T15:31:36.283Z,14.58
2022-11-08T15:34:05.551Z,14.55
2022-11-08T15:36:35.501Z,14.55
2022-11-08T15:39:05.354Z,14.64
2022-11-08T15:41:37.196Z,14.70
2022-11-08T15:44:17.134Z,14.72
2022-11-08T15:46:46.316Z,14.64
2022-11-08T15:49:17.344Z,14.49
2022-11-08T15:51:45.341Z,14.34
2022-11-08T15:54:13.172Z,14.20
2022-11-08T15:56:42.634Z,14.06
2022-11-08T15:59:21.341Z,13.94
2022-11-08T16:01:55.179Z,13.78
2022-11-08T16:04:23.029Z,13.71
2022-11-08T16:06:50.817Z,13.63
2022-11-08T16:09:18.526Z,13.53
2022-11-08T16:11:46.505Z,13.44
2022-11-08T16:14:18.373Z,13.47
2022-11-08T16:16:46.420Z,13.48
2022-11-08T16:19:20.966Z,13.50
2022-11-08T16:21:48.850Z,13.50
2022-11-08T16:24:16.912Z,13.47
2022-11-08T16:26:45.870Z,13.42
2022-11-08T16:29:22.727Z,13.37
2022-11-08T16:31:51.415Z,13.28
2022-11-08T16:34:20.872Z,13.20
2022-11-08T16:36:50.181Z,13.14
2022-11-08T16:39:20.279Z,13.06
2022-11-08T16:41:48.697Z,13.01
2022-11-08T16:44:16.737Z,12.93
2022-11-08T16:46:44.793Z,12.96
2022-11-08T16:49:23.194Z,12.87
2022-11-08T16:51:51.230Z,12.79
2022-11-08T16:54:20.726Z,12.75
2022-11-08T16:56:48.388Z,12.73
2022-11-08T16:59:16.170Z,12.68
2022-11-08T17:01:44.723Z,12.64
2022-11-08T17:04:12.490Z,12.62
2022-11-08T17:06:42.008Z,12.63
2022-11-08T17:09:09.701Z,12.66
2022-11-08T17:11:38.487Z,12.58
2022-11-08T17:14:06.676Z,12.58
2022-11-08T17:16:34.548Z,12.50
2022-11-08T17:19:04.560Z,12.37
2022-11-08T17:21:47.537Z,12.32
2022-11-08T17:24:21.573Z,12.26
2022-11-08T17:26:50.240Z,12.26
2022-11-08T17:29:18.219Z,12.15
2022-11-08T17:31:45.880Z,12.09
2022-11-08T17:34:13.961Z,12.06
2022-11-08T17:36:41.703Z,12.01
2022-11-08T17:39:11.805Z,11.93
2022-11-08T17:41:40.956Z,11.89
2022-11-08T17:44:08.896Z,11.85
2022-11-08T17:46:37.014Z,11.83
2022-11-08T17:49:04.992Z,11.81
2022-11-08T17:51:32.635Z,11.74
2022-11-08T17:54:00.414Z,11.62
2022-11-08T17:56:28.108Z,11.51
2022-11-08T17:58:57.381Z,11.41
2022-11-08T18:01:25.126Z,11.39
2022-11-08T18:03:52.878Z,11.35
2022-11-08T18:06:20.545Z,11.34
2022-11-08T18:08:48.799Z,11.33
2022-11-08T18:11:16.521Z,11.29
2022-11-08T18:13:44.266Z,11.32
2022-11-08T18:16:15.576Z,11.38
2022-11-08T18:18:44.089Z,11.38
2022-11-08T18:21:12.330Z,11.23
2022-11-08T18:23:41.955Z,11.16
2022-11-08T18:26:10.215Z,10.92
2022-11-08T18:28:38.116Z,10.57
2022-11-08T18:31:07.919Z,10.53
2022-11-08T18:33:37.934Z,10.51
2022-11-08T18:36:06.390Z,10.46
2022-11-08T18:38:35.890Z,10.42
2022-11-08T18:41:03.601Z,10.38
2022-11-08T18:43:31.426Z,10.32
2022-11-08T18:46:03.067Z,10.31
2022-11-08T18:48:32.609Z,10.32
2022-11-08T18:51:01.727Z,10.28
2022-11-08T18:53:30.183Z,10.24
2022-11-08T18:55:57.866Z,10.12
2022-11-08T18:58:26.065Z,10.09
2022-11-08T19:00:54.400Z,10.09
2022-11-08T19:03:22.876Z,10.10
2022-11-08T19:05:50.702Z,10.22
2022-11-08T19:08:22.390Z,10.26
2022-11-08T19:10:51.359Z,10.19
2022-11-08T19:13:20.277Z,10.16
2022-11-08T19:15:57.024Z,9.91
2022-11-08T19:18:25.027Z,9.71
2022-11-08T19:20:57.000Z,9.55
2022-11-08T19:23:27.034Z,9.38
2022-11-08T19:25:56.596Z,9.36
2022-11-08T19:28:26.260Z,9.37
2022-11-08T19:30:57.026Z,9.39
2022-11-08T19:33:27.106Z,9.38
2022-11-08T19:35:55.473Z,9.09
2022-11-08T19:38:23.137Z,9.06
2022-11-08T19:40:52.486Z,8.94
2022-11-08T19:43:20.492Z,8.83
2022-11-08T19:45:53.900Z,8.79
2022-11-08T19:48:21.855Z,8.72
2022-11-08T19:50:50.616Z,8.67
2022-11-08T19:53:18.300Z,8.59
2022-11-08T19:55:46.770Z,8.56
2022-11-08T19:58:18.158Z,8.56
2022-11-08T20:00:46.269Z,8.53
2022-11-08T20:03:14.025Z,8.51
2022-11-08T20:05:42.374Z,8.51
2022-11-08T20:08:10.694Z,8.52
2022-11-08T20:10:38.360Z,8.57
2022-11-08T20:13:08.777Z,8.55
2022-11-08T20:15:38.040Z,8.52
2022-11-08T20:18:06.443Z,8.51
2022-11-08T20:20:34.833Z,8.47
2022-11-08T20:23:03.767Z,8.50
2022-11-08T20:25:34.096Z,8.51
2022-11-08T20:28:01.833Z,8.55
2022-11-08T20:30:30.246Z,8.55
2022-11-08T20:32:59.261Z,8.51
2022-11-08T20:35:27.877Z,8.54
2022-11-08T20:37:57.970Z,8.52
2022-11-08T20:40:25.980Z,8.54
2022-11-08T20:42:53.644Z,8.51
2022-11-08T20:45:21.506Z,8.47
2022-11-08T20:47:49.145Z,8.44
2022-11-08T20:50:18.214Z,8.28
2022-11-08T20:52:45.982Z,8.09
2022-11-08T20:55:13.623Z,8.05
2022-11-08T20:57:41.279Z,8.03
2022-11-08T21:00:13.598Z,8.02
2022-11-08T21:02:42.237Z,7.95
2022-11-08T21:05:10.443Z,7.91
2022-11-08T21:08:01.797Z,7.92
2022-11-08T21:10:46.345Z,7.85
2022-11-08T21:13:15.121Z,7.82
2022-11-08T21:15:45.389Z,7.80
2022-11-08T21:18:13.417Z,7.71
2022-11-08T21:20:41.941Z,7.65
2022-11-08T21:23:10.992Z,7.51
2022-11-08T21:25:38.614Z,7.42
2022-11-08T21:28:06.283Z,7.38
2022-11-08T21:30:34.036Z,7.27
2022-11-08T21:33:01.653Z,7.18
2022-11-08T21:35:29.322Z,7.13
2022-11-08T21:37:56.941Z,7.08
2022-11-08T21:40:25.934Z,7.05
2022-11-08T21:42:53.568Z,7.06
2022-11-08T21:45:21.687Z,7.17
2022-11-08T21:47:52.967Z,7.18
2022-11-08T21:50:22.359Z,7.16
2022-11-08T21:52:50.425Z,7.21
2022-11-08T21:55:18.204Z,7.19
2022-11-08T21:57:47.153Z,7.20
2022-11-08T22:00:15.963Z,7.21
2022-11-08T22:02:43.766Z,7.21
2022-11-08T22:05:11.746Z,7.11
2022-11-08T22:07:39.436Z,7.08
2022-11-08T22:10:08.070Z,6.96
2022-11-08T22:12:35.705Z,7.02
2022-11-08T22:15:05.242Z,7.05
2022-11-08T22:17:32.936Z,7.03
2022-11-08T22:20:00.903Z,7.08
2022-11-08T22:22:28.529Z,7.12
2022-11-08T22:24:56.460Z,7.12
2022-11-08T22:27:24.151Z,7.13
2022-11-08T22:29:51.836Z,7.11
2022-11-08T22:32:20.805Z,7.19
2022-11-08T22:34:48.429Z,7.29
2022-11-08T22:37:16.044Z,7.33
2022-11-08T22:39:43.645Z,7.41
2022-11-08T22:42:11.273Z,7.39
2022-11-08T22:44:38.883Z,7.39
2022-11-08T22:47:06.839Z,7.41
2022-11-08T22:49:37.857Z,7.43
2022-11-08T22:52:08.643Z,7.38
2022-11-08T22:54:36.269Z,7.38
2022-11-08T22:57:04.875Z,7.45
2022-11-08T22:59:32.688Z,7.49
2022-11-08T23:02:00.312Z,7.47
2022-11-08T23:04:27.929Z,7.44
2022-11-08T23:06:56.945Z,7.43
2022-11-08T23:09:25.577Z,7.45
2022-11-08T23:12:10.947Z,7.40
2022-11-08T23:14:56.317Z,7.38
2022-11-08T23:17:23.954Z,7.31
2022-11-08T23:20:09.225Z,7.15
2022-11-08T23:22:55.671Z,7.16
2022-11-08T23:25:23.593Z,7.20
2022-11-08T23:28:08.955Z,7.21
2022-11-08T23:30:54.112Z,7.22
2022-11-08T23:33:22.134Z,7.21
2022-11-08T23:36:15.154Z,7.28
2022-11-08T23:38:44.388Z,7.26
2022-11-08T23:41:29.914Z,7.25
2022-11-08T23:44:15.142Z,7.24
2022-11-08T23:46:42.789Z,7.24
2022-11-08T23:49:10.435Z,7.18
2022-11-08T23:51:38.553Z,7.02
2022-11-08T23:54:07.611Z,7.11
2022-11-08T23:56:35.579Z,7.13
2022-11-08T23:59:03.242Z,7.11
